Time;durP1;ratioP1;P1;durP2;ratioP2;P2;SDS_P1;SDS_P2;PMS_P1;PMS_P2;Temp;Humidity;BMP_temperature;BMP_pressure;BME280_temperature;BME280_humidity;BME280_pressure;Samples;Min_cycle;Max_cycle;Signal;HPM_P1;HPM_P2
2021/01/14 00:01:57;;;;;;;1.27;1.17;;;;;;;2.46;94.57;96422.22;5053240;28;20064;-65
2021/01/14 00:04:23;;;;;;;2.47;1.30;;;;;;;2.42;95.40;96418.56;5050757;28;20081;-65
2021/01/14 00:06:51;;;;;;;2.88;1.23;;;;;;;2.46;94.23;96423.00;5055180;28;20497;-62
2021/01/14 00:09:17;;;;;;;1.52;1.42;;;;;;;2.47;95.02;96419.19;5056812;28;20036;-64
2021/01/14 00:11:45;;;;;;;1.27;1.17;;;;;;;2.47;94.59;96410.28;5064230;28;20053;-65
2021/01/14 00:14:11;;;;;;;1.38;1.08;;;;;;;2.47;94.71;96413.78;5057574;28;20035;-64
2021/01/14 00:16:36;;;;;;;1.75;1.50;;;;;;;2.47;95.35;96415.69;5063339;28;20036;-65
2021/01/14 00:19:03;;;;;;;1.17;1.08;;;;;;;2.45;95.74;96412.53;5074237;28;20044;-66
2021/01/14 00:21:29;;;;;;;1.67;1.35;;;;;;;2.47;95.02;96421.09;5067683;28;20044;-65
2021/01/14 00:23:54;;;;;;;1.33;1.10;;;;;;;2.44;95.66;96413.63;5067678;28;20110;-64
2021/01/14 00:26:20;;;;;;;1.23;1.13;;;;;;;2.48;95.13;96403.75;5040808;28;20040;-65
2021/01/14 00:28:45;;;;;;;1.10;1.00;;;;;;;2.50;94.96;96396.13;5057542;28;20039;-65
2021/01/14 00:31:10;;;;;;;1.13;1.05;;;;;;;2.58;95.07;96399.94;5058572;28;20037;-64
2021/01/14 00:33:36;;;;;;;1.35;1.15;;;;;;;2.57;95.35;96417.25;5063739;28;20086;-64
2021/01/14 00:36:01;;;;;;;1.20;1.10;;;;;;;2.58;95.14;96413.47;5058957;28;20127;-65
2021/01/14 00:38:26;;;;;;;1.27;1.17;;;;;;;2.57;95.62;96411.84;5056459;28;20493;-64
2021/01/14 00:40:52;;;;;;;1.10;1.00;;;;;;;2.57;95.79;96385.59;5060314;28;20044;-65
2021/01/14 00:43:17;;;;;;;1.63;1.30;;;;;;;2.59;95.62;96394.22;5054966;28;20040;-64
2021/01/14 00:45:42;;;;;;;1.20;1.10;;;;;;;2.62;95.49;96390.06;5056125;28;20048;-64
2021/01/14 00:48:08;;;;;;;2.17;1.50;;;;;;;2.61;95.10;96397.38;5054734;28;20076;-63
2021/01/14 00:50:33;;;;;;;1.60;1.10;;;;;;;2.65;95.05;96392.13;5043251;28;20036;-65
2021/01/14 00:52:59;;;;;;;1.10;1.00;;;;;;;2.66;95.61;96409.91;5062151;28;20404;-62
2021/01/14 00:55:24;;;;;;;1.70;1.27;;;;;;;2.63;95.23;96395.16;5063404;28;20047;-64
2021/01/14 00:57:50;;;;;;;1.20;1.10;;;;;;;2.66;95.19;96402.59;5047669;28;20048;-64
2021/01/14 01:00:18;;;;;;;2.17;1.10;;;;;;;2.67;95.45;96415.00;5045038;28;20049;-63
2021/01/14 01:02:46;;;;;;;2.05;1.27;;;;;;;2.70;95.12;96412.78;5046377;28;20048;-63
2021/01/14 01:05:11;;;;;;;1.88;1.45;;;;;;;2.71;95.24;96407.03;5045862;28;20041;-63
2021/01/14 01:07:38;;;;;;;1.50;1.05;;;;;;;2.73;95.60;96421.03;5039897;28;20123;-64
2021/01/14 01:10:07;;;;;;;1.60;1.35;;;;;;;2.74;95.73;96416.41;5048355;28;20114;-62
2021/01/14 01:12:32;;;;;;;1.57;1.43;;;;;;;2.74;95.96;96416.41;5056564;28;20055;-65
2021/01/14 01:14:58;;;;;;;1.45;1.35;;;;;;;2.75;95.49;96407.19;5049510;28;20036;-61
2021/01/14 01:17:29;;;;;;;1.60;1.23;;;;;;;2.72;95.51;96405.94;5039553;28;20037;-61
2021/01/14 01:19:54;;;;;;;1.52;1.25;;;;;;;2.75;95.27;96416.09;5061488;28;20193;-64
2021/01/14 01:22:20;;;;;;;1.60;1.20;;;;;;;2.75;95.49;96407.19;5051142;28;20060;-63
2021/01/14 01:24:45;;;;;;;1.33;1.23;;;;;;;2.77;95.82;96421.19;5053636;28;20045;-65
2021/01/14 01:27:10;;;;;;;1.75;1.20;;;;;;;2.78;95.18;96407.34;5056392;28;20036;-64
2021/01/14 01:29:36;;;;;;;1.67;1.40;;;;;;;2.77;95.18;96408.44;5060689;28;20043;-63
2021/01/14 01:32:01;;;;;;;1.10;1.00;;;;;;;2.77;95.24;96421.97;5060284;28;20090;-63
2021/01/14 01:34:27;;;;;;;1.27;1.17;;;;;;;2.77;95.74;96413.06;5054179;28;20673;-63
2021/01/14 01:36:53;;;;;;;1.58;1.20;;;;;;;2.80;95.60;96407.81;5060932;28;20041;-64
2021/01/14 01:39:18;;;;;;;1.10;1.00;;;;;;;2.81;95.10;96420.22;5044450;28;20068;-64
2021/01/14 01:41:45;;;;;;;1.20;1.10;;;;;;;2.81;95.29;96425.63;5022861;28;20033;-64
2021/01/14 01:44:11;;;;;;;1.27;1.13;;;;;;;2.79;95.76;96427.06;5036327;28;20041;-64
2021/01/14 01:46:36;;;;;;;1.45;1.13;;;;;;;2.81;95.10;96436.47;5041087;28;20379;-64
2021/01/14 01:49:01;;;;;;;1.27;1.17;;;;;;;2.87;94.96;96434.38;5041270;28;20144;-63
2021/01/14 01:51:33;;;;;;;2.95;1.42;;;;;;;2.86;95.51;96438.19;5013535;28;20063;-63
2021/01/14 01:53:59;;;;;;;1.33;1.15;;;;;;;2.85;95.79;96440.09;5052937;28;20409;-63
2021/01/14 01:56:25;;;;;;;1.10;0.90;;;;;;;2.90;95.26;96443.75;5044116;28;20045;-63
2021/01/14 01:58:55;;;;;;;1.40;1.23;;;;;;;2.85;95.53;96445.50;5055760;28;20386;-64
2021/01/14 02:01:23;;;;;;;1.92;1.50;;;;;;;2.82;95.52;96450.78;5054621;28;20037;-63
2021/01/14 02:03:48;;;;;;;1.33;1.10;;;;;;;2.91;96.08;96458.88;5059880;28;20036;-64
2021/01/14 02:06:13;;;;;;;1.23;1.13;;;;;;;2.91;95.58;96456.94;5055029;28;20481;-64
2021/01/14 02:08:51;;;;;;;1.45;1.30;;;;;;;2.95;95.54;96455.19;5061144;28;20127;-63
2021/01/14 02:11:27;;;;;;;1.38;1.10;;;;;;;2.87;95.38;96448.69;5046158;28;20517;-62
2021/01/14 02:14:07;;;;;;;1.88;1.40;;;;;;;2.84;96.13;96448.53;5059338;28;20068;-64
2021/01/14 02:16:33;;;;;;;;;;;;;;;2.83;96.05;96455.88;5061510;28;20075;-64
2021/01/14 02:18:59;;;;;;;1.33;1.20;;;;;;;2.87;95.51;96456.00;5055744;28;19921;-65
2021/01/14 02:21:26;;;;;;;1.27;1.17;;;;;;;2.86;95.68;96449.00;5062851;28;20485;-64
2021/01/14 02:24:11;;;;;;;1.30;1.20;;;;;;;2.86;95.78;96459.81;5067394;28;20063;-63
2021/01/14 02:26:38;;;;;;;2.83;1.50;;;;;;;2.81;96.11;96449.97;5057710;28;20056;-64
2021/01/14 02:29:05;;;;;;;1.38;1.27;;;;;;;2.84;96.44;96462.06;5053321;28;20032;-63
2021/01/14 02:31:30;;;;;;;3.03;1.20;;;;;;;2.80;96.16;96453.00;5062285;28;20523;-65
2021/01/14 02:33:56;;;;;;;1.10;1.00;;;;;;;2.84;96.13;96459.34;5056112;28;20041;-64
2021/01/14 02:36:23;;;;;;;1.15;1.05;;;;;;;2.87;95.95;96453.31;5052576;28;21225;-63
2021/01/14 02:38:49;;;;;;;1.15;1.02;;;;;;;2.90;96.46;96446.44;5061324;28;20098;-64
2021/01/14 02:41:15;;;;;;;1.27;1.17;;;;;;;2.84;96.03;96460.13;5050991;28;20037;-63
2021/01/14 02:43:42;;;;;;;1.33;1.10;;;;;;;2.84;96.32;96470.97;5055808;28;20110;-64
2021/01/14 02:46:09;;;;;;;1.15;1.00;;;;;;;2.84;96.91;96462.06;5052273;28;20072;-63
2021/01/14 02:48:49;;;;;;;1.45;1.20;;;;;;;2.82;97.19;96469.69;5059249;28;20041;-64
2021/01/14 02:51:20;;;;;;;2.55;1.20;;;;;;;2.83;96.62;96463.97;5047001;28;20118;-63
2021/01/14 02:53:49;;;;;;;1.50;1.25;;;;;;;2.84;97.17;96470.97;5056117;28;20041;-65
2021/01/14 02:56:16;;;;;;;1.90;1.63;;;;;;;2.85;97.20;96477.97;5055881;28;20040;-64
2021/01/14 02:58:41;;;;;;;1.27;1.10;;;;;;;2.88;96.85;96476.53;5063145;28;20037;-64
2021/01/14 03:01:07;;;;;;;1.95;1.60;;;;;;;2.84;96.95;96479.06;5056818;28;20046;-62
2021/01/14 03:03:32;;;;;;;2.60;1.15;;;;;;;2.85;97.18;96479.88;5062584;28;20102;-62
2021/01/14 03:05:57;;;;;;;1.42;1.25;;;;;;;2.87;97.35;96485.78;5052793;28;20044;-62
2021/01/14 03:08:23;;;;;;;1.45;1.17;;;;;;;2.95;96.95;96493.06;5044635;28;21048;-62
2021/01/14 03:10:48;;;;;;;2.22;1.30;;;;;;;2.99;97.27;96483.19;5050677;28;20040;-62
2021/01/14 03:13:13;;;;;;;3.35;1.60;;;;;;;3.08;97.44;96485.06;5049254;28;20045;-65
2021/01/14 03:15:39;;;;;;;1.55;1.08;;;;;;;3.10;96.80;96488.25;5059475;28;20044;-62
2021/01/14 03:18:04;;;;;;;4.25;1.20;;;;;;;3.18;96.72;96500.97;5065229;28;20033;-63
2021/01/14 03:20:30;;;;;;;1.55;1.02;;;;;;;3.14;96.64;96498.13;5064462;28;20098;-63
2021/01/14 03:22:55;;;;;;;1.27;1.17;;;;;;;3.05;96.63;96502.75;5053004;28;20036;-64
2021/01/14 03:25:21;;;;;;;1.73;1.38;;;;;;;2.95;96.84;96511.22;5046386;28;20060;-65
2021/01/14 03:27:47;;;;;;;2.60;1.40;;;;;;;2.98;96.72;96516.78;5053279;28;20734;-63
2021/01/14 03:30:14;;;;;;;1.85;1.60;;;;;;;3.03;96.44;96505.00;5057545;28;20489;-65
2021/01/14 03:32:40;;;;;;;2.13;1.88;;;;;;;3.13;96.50;96499.22;5062223;28;20052;-64
2021/01/14 03:35:07;;;;;;;3.40;3.10;;;;;;;3.18;96.14;96503.66;5056007;28;20044;-63
2021/01/14 03:37:35;;;;;;;3.67;3.20;;;;;;;3.27;94.68;96504.44;5066104;28;20733;-63
2021/01/14 03:40:01;;;;;;;4.30;2.05;;;;;;;3.34;93.15;96512.84;5062639;28;20551;-62
2021/01/14 03:42:26;;;;;;;4.43;1.35;;;;;;;3.27;91.81;96519.88;5051106;28;20048;-62
2021/01/14 03:44:52;;;;;;;0.90;0.90;;;;;;;3.15;90.90;96509.72;5062809;28;20083;-60
2021/01/14 03:47:17;;;;;;;0.98;0.90;;;;;;;3.10;90.93;96513.41;5058521;28;20041;-62
2021/01/14 03:49:43;;;;;;;0.80;0.80;;;;;;;2.97;90.52;96509.78;5058189;28;20066;-65
2021/01/14 03:52:09;;;;;;;1.05;0.90;;;;;;;2.93;90.41;96503.41;5052806;28;20105;-62
2021/01/14 03:54:35;;;;;;;0.80;0.75;;;;;;;2.86;89.81;96513.94;5062400;28;20047;-64
2021/01/14 03:57:01;;;;;;;1.27;1.00;;;;;;;2.78;90.06;96512.03;5044108;28;20390;-63
2021/01/14 03:59:26;;;;;;;1.45;0.98;;;;;;;2.67;89.89;96514.28;5057385;28;20760;-64
2021/01/14 04:02:06;;;;;;;0.80;0.80;;;;;;;2.61;89.85;96513.66;5058014;28;20129;-66
2021/01/14 04:04:38;;;;;;;0.80;0.80;;;;;;;2.56;90.06;96527.34;5062577;28;20700;-65
2021/01/14 04:07:12;;;;;;;0.85;0.80;;;;;;;2.48;89.49;96526.22;5059974;28;20087;-62
2021/01/14 04:09:38;;;;;;;0.90;0.90;;;;;;;2.45;89.71;96534.97;5077027;28;20100;-63
2021/01/14 04:12:04;;;;;;;0.85;0.85;;;;;;;2.43;89.63;96547.19;5040261;28;20076;-62
2021/01/14 04:14:30;;;;;;;1.02;0.93;;;;;;;2.39;90.18;96555.13;5053436;28;20069;-65
2021/01/14 04:16:56;;;;;;;1.00;0.90;;;;;;;2.39;89.92;96557.84;5054319;28;20043;-63
2021/01/14 04:19:21;;;;;;;0.80;0.80;;;;;;;2.31;90.88;96557.84;5047605;28;20057;-63
2021/01/14 04:21:47;;;;;;;0.88;0.70;;;;;;;2.35;90.56;96550.69;5050855;28;20044;-63
2021/01/14 04:24:13;;;;;;;0.73;0.73;;;;;;;2.27;91.04;96544.97;5052998;28;20509;-64
2021/01/14 04:26:38;;;;;;;1.00;0.90;;;;;;;1.82;91.16;96558.69;5057673;28;20048;-64
2021/01/14 04:29:05;;;;;;;1.00;0.90;;;;;;;1.76;92.85;96562.63;5054265;28;20079;-62
2021/01/14 04:31:31;;;;;;;0.77;0.77;;;;;;;1.12;93.74;96563.00;5065301;28;20599;-63
2021/01/14 04:33:57;;;;;;;0.60;0.60;;;;;;;0.89;94.86;96586.47;5059601;28;20086;-62
2021/01/14 04:36:22;;;;;;;0.93;0.93;;;;;;;0.59;95.58;96590.69;5042466;28;20726;-65
2021/01/14 04:38:48;;;;;;;1.10;1.05;;;;;;;0.35;96.08;96594.44;5055921;28;20037;-62
2021/01/14 04:41:17;;;;;;;1.00;1.00;;;;;;;0.43;95.76;96609.88;5042457;28;20036;-64
2021/01/14 04:43:43;;;;;;;1.00;1.00;;;;;;;0.22;96.09;96608.72;5056065;28;20064;-65
2021/01/14 04:46:11;;;;;;;1.33;1.20;;;;;;;0.05;96.77;96606.66;5035328;28;20061;-62
2021/01/14 04:48:42;;;;;;;0.85;0.85;;;;;;;-0.15;97.02;96608.66;5058431;28;20183;-63
2021/01/14 04:51:08;;;;;;;1.15;1.05;;;;;;;-0.18;97.07;96620.03;5057204;28;20131;-64
2021/01/14 04:53:35;;;;;;;1.60;1.35;;;;;;;-0.26;97.59;96615.34;5054366;28;20106;-63
2021/01/14 04:56:03;;;;;;;1.30;1.13;;;;;;;-0.27;97.35;96611.03;5052258;28;20045;-64
2021/01/14 04:58:29;;;;;;;1.38;1.27;;;;;;;-0.29;97.50;96621.31;5056960;28;20047;-63
2021/01/14 05:00:57;;;;;;;1.85;1.25;;;;;;;-0.24;97.62;96619.31;5067040;28;20044;-63
2021/01/14 05:03:27;;;;;;;2.65;1.30;;;;;;;-0.12;97.39;96623.44;5055572;28;20705;-63
2021/01/14 05:05:53;;;;;;;;;;;;;;;0.05;96.75;96630.91;5051519;28;20056;-63
2021/01/14 05:08:30;;;;;;;13.73;3.38;;;;;;;0.16;96.61;96624.19;5034767;28;20343;-65
2021/01/14 05:10:56;;;;;;;4.40;2.13;;;;;;;0.33;95.00;96624.38;5050759;28;20052;-64
2021/01/14 05:13:22;;;;;;;16.60;4.68;;;;;;;0.34;94.82;96626.00;5049929;28;20120;-62
2021/01/14 05:15:48;;;;;;;2.08;1.55;;;;;;;0.37;94.67;96633.44;5048531;28;20047;-64
2021/01/14 05:18:14;;;;;;;7.90;2.55;;;;;;;0.40;93.85;96636.63;5055501;28;20141;-64
2021/01/14 05:20:39;;;;;;;13.55;3.80;;;;;;;0.43;93.86;96650.28;5059699;28;20053;-64
2021/01/14 05:23:05;;;;;;;3.20;2.17;;;;;;;0.35;93.92;96646.44;5046787;28;20065;-62
2021/01/14 05:25:32;;;;;;;1.52;1.38;;;;;;;0.28;94.37;96642.56;5063683;28;20044;-61
2021/01/14 05:28:11;;;;;;;2.38;1.60;;;;;;;0.45;93.76;96650.00;5057991;28;20060;-61
2021/01/14 05:30:37;;;;;;;6.75;3.33;;;;;;;0.55;93.03;96655.19;5054655;28;20056;-62
2021/01/14 05:33:03;;;;;;;4.80;2.38;;;;;;;0.42;93.14;96650.63;5053157;28;20045;-63
2021/01/14 05:35:29;;;;;;;4.10;2.00;;;;;;;0.40;92.48;96653.63;5042360;28;20045;-64
2021/01/14 05:38:03;;;;;;;4.10;2.47;;;;;;;0.30;93.26;96659.22;5056782;28;20040;-64
2021/01/14 05:40:29;;;;;;;12.13;2.63;;;;;;;0.44;92.87;96649.22;5045606;28;20045;-64
2021/01/14 05:43:06;;;;;;;1.52;1.27;;;;;;;0.26;92.90;96648.22;5050775;28;20130;-63
2021/01/14 05:45:35;;;;;;;1.50;1.40;;;;;;;0.32;92.70;96647.03;5046452;28;20518;-64
2021/01/14 05:48:12;;;;;;;5.40;1.80;;;;;;;0.22;93.32;96644.56;5040503;28;20076;-65
2021/01/14 05:50:47;;;;;;;2.05;1.80;;;;;;;0.15;93.65;96655.72;5062144;28;20279;-64
2021/01/14 05:53:17;;;;;;;2.40;1.60;;;;;;;0.07;93.79;96652.94;5060189;28;20123;-64
2021/01/14 05:55:45;;;;;;;1.90;1.60;;;;;;;-0.04;94.41;96666.63;5063993;28;20049;-64
2021/01/14 05:58:20;;;;;;;1.50;1.33;;;;;;;-0.02;94.84;96669.81;5051986;28;20098;-64
2021/01/14 06:00:47;;;;;;;2.00;1.63;;;;;;;0.07;93.71;96671.78;5056368;28;20417;-62
2021/01/14 06:03:26;;;;;;;2.13;1.70;;;;;;;0.01;94.35;96678.38;5048972;28;20048;-63
2021/01/14 06:05:52;;;;;;;1.92;1.55;;;;;;;0.03;93.92;96670.78;5055017;28;20489;-63
2021/01/14 06:08:23;;;;;;;2.88;1.50;;;;;;;-0.13;95.29;96673.75;5056364;28;20036;-63
2021/01/14 06:10:49;;;;;;;2.20;1.83;;;;;;;-0.02;94.14;96669.81;5063210;28;20037;-64
2021/01/14 06:13:14;;;;;;;2.55;1.73;;;;;;;-0.06;94.38;96679.56;5048972;28;20051;-64
2021/01/14 06:15:40;;;;;;;2.72;2.20;;;;;;;-0.09;95.14;96674.78;5061347;28;20048;-63
2021/01/14 06:18:11;;;;;;;2.67;2.13;;;;;;;-0.12;94.94;96677.28;5054509;28;20493;-62
2021/01/14 06:20:53;;;;;;;3.10;1.90;;;;;;;-0.09;94.67;96682.88;5050930;28;20064;-62
2021/01/14 06:23:22;;;;;;;2.13;1.50;;;;;;;0.02;94.25;96675.38;5054564;28;20028;-62
2021/01/14 06:25:49;;;;;;;3.25;1.65;;;;;;;-0.03;94.56;96681.66;5063628;28;20067;-63
2021/01/14 06:28:15;;;;;;;3.13;1.80;;;;;;;-0.06;94.46;96684.16;5047661;28;20075;-65
2021/01/14 06:30:57;;;;;;;2.72;1.60;;;;;;;-0.11;94.71;96678.84;5064989;28;20044;-64
2021/01/14 06:33:24;;;;;;;2.33;1.73;;;;;;;-0.23;95.50;96688.22;5048236;28;20049;-63
2021/01/14 06:36:06;;;;;;;2.58;1.88;;;;;;;-0.18;95.34;96687.34;5053945;28;20102;-65
2021/01/14 06:38:46;;;;;;;2.42;1.90;;;;;;;-0.23;95.40;96690.13;5055663;28;20052;-63
2021/01/14 06:41:21;;;;;;;4.20;2.08;;;;;;;-0.03;94.72;96689.72;5056628;28;20481;-64
2021/01/14 06:43:49;;;;;;;2.55;1.77;;;;;;;-0.01;94.31;96686.75;5045255;28;20124;-63
2021/01/14 06:46:15;;;;;;;2.05;1.80;;;;;;;0.08;94.25;96693.03;5059151;28;20043;-65
2021/01/14 06:48:58;;;;;;;6.88;2.28;;;;;;;0.08;94.23;96687.66;5064109;28;20111;-64
2021/01/14 06:51:29;;;;;;;18.63;4.85;;;;;;;0.06;94.25;96687.16;5057315;28;20525;-64
2021/01/14 06:54:01;;;;;;;13.40;3.83;;;;;;;0.03;94.12;96695.81;5064791;28;20083;-65
2021/01/14 06:56:32;;;;;;;3.55;1.58;;;;;;;0.14;94.52;96691.03;5058607;28;20033;-65
2021/01/14 06:59:01;;;;;;;7.50;1.98;;;;;;;0.05;93.96;96701.69;5053878;28;20040;-65
2021/01/14 07:01:26;;;;;;;2.28;1.33;;;;;;;0.05;94.48;96715.16;5042919;28;20045;-65
2021/01/14 07:03:57;;;;;;;2.63;1.83;;;;;;;0.10;94.55;96708.91;5051616;28;20040;-62
2021/01/14 07:06:27;;;;;;;10.93;2.88;;;;;;;0.15;93.95;96712.28;5045348;28;20901;-65
2021/01/14 07:08:55;;;;;;;8.18;2.50;;;;;;;0.13;93.79;96711.78;5056958;28;20208;-63
2021/01/14 07:11:24;;;;;;;4.97;1.63;;;;;;;0.11;93.75;96715.88;5060266;28;20486;-65
2021/01/14 07:13:53;;;;;;;7.28;2.53;;;;;;;-0.06;94.20;96717.25;5046366;28;20592;-62
2021/01/14 07:16:24;;;;;;;3.70;2.30;;;;;;;-0.07;94.11;96718.34;5043737;28;20049;-65
2021/01/14 07:18:50;;;;;;;8.52;2.15;;;;;;;-0.13;94.79;96722.22;5038605;28;20049;-66
2021/01/14 07:21:36;;;;;;;6.97;2.30;;;;;;;-0.30;94.41;96716.63;5038781;28;20059;-63
2021/01/14 07:24:20;;;;;;;7.85;3.35;;;;;;;-0.20;94.94;96722.63;5033016;28;20043;-64
2021/01/14 07:26:54;;;;;;;9.82;3.08;;;;;;;-0.02;95.49;96720.97;5055239;28;20051;-64
2021/01/14 07:29:20;;;;;;;3.25;1.85;;;;;;;0.02;95.08;96726.56;5058523;28;20047;-65
2021/01/14 07:31:56;;;;;;;24.63;5.70;;;;;;;-0.09;94.96;96728.63;5057738;28;20413;-63
2021/01/14 07:34:39;;;;;;;2.35;1.48;;;;;;;-0.20;94.83;96719.94;5058256;28;20068;-63
2021/01/14 07:37:12;;;;;;;2.50;1.95;;;;;;;0.01;94.78;96722.25;5055537;28;20037;-63
2021/01/14 07:39:53;;;;;;;8.40;4.70;;;;;;;0.07;94.18;96726.44;5049191;28;20509;-64
2021/01/14 07:42:22;;;;;;;15.95;4.13;;;;;;;0.20;93.77;96735.66;5045687;28;20371;-63
2021/01/14 07:44:51;;;;;;;14.38;5.80;;;;;;;-0.01;93.76;96733.31;5055320;28;20043;-63
2021/01/14 07:47:43;;;;;;;6.50;3.30;;;;;;;0.03;93.54;96740.81;5055531;28;20036;-64
2021/01/14 07:50:23;;;;;;;10.15;3.67;;;;;;;-0.07;94.29;96741.81;5053837;28;20607;-64
2021/01/14 07:52:53;;;;;;;5.90;2.03;;;;;;;0.04;94.57;96739.69;5053359;28;20052;-64
2021/01/14 07:55:34;;;;;;;2.90;2.17;;;;;;;0.10;93.95;96741.22;5056070;28;20041;-65
2021/01/14 07:58:03;;;;;;;5.65;4.18;;;;;;;0.13;94.32;96746.00;5056825;28;20124;-64
2021/01/14 08:00:29;;;;;;;17.02;15.02;;;;;;;0.05;93.96;96739.41;5058574;28;20044;-66
2021/01/14 08:03:04;;;;;;;9.73;7.88;;;;;;;0.12;93.71;96750.59;5058307;28;20040;-63
2021/01/14 08:05:56;;;;;;;5.93;4.55;;;;;;;0.16;93.96;96754.31;5039458;28;20466;-63
2021/01/14 08:08:37;;;;;;;15.98;8.27;;;;;;;-0.07;94.18;96760.66;5057961;28;20124;-63
2021/01/14 08:11:13;;;;;;;8.48;5.30;;;;;;;-0.03;93.95;96761.66;5059954;28;20401;-63
2021/01/14 08:14:11;;;;;;;12.15;7.15;;;;;;;0.05;94.16;96765.53;5063735;28;20133;-67
2021/01/14 08:16:46;;;;;;;36.60;17.75;;;;;;;0.24;94.22;96760.88;5053330;28;20044;-66
2021/01/14 08:19:14;;;;;;;32.90;18.50;;;;;;;0.27;93.49;96764.88;5059071;28;20048;-64
2021/01/14 08:21:42;;;;;;;25.38;12.57;;;;;;;0.26;93.54;96774.06;5065122;28;20040;-66
2021/01/14 08:24:08;;;;;;;19.67;9.88;;;;;;;0.28;93.54;96774.56;5058449;28;20052;-64
2021/01/14 08:27:00;;;;;;;13.15;7.45;;;;;;;0.27;93.35;96778.34;5062607;28;20043;-64
2021/01/14 08:29:33;;;;;;;9.50;5.30;;;;;;;-0.15;94.02;96778.25;5059047;28;20036;-65
2021/01/14 08:31:59;;;;;;;17.05;5.20;;;;;;;-0.52;95.71;96771.88;5056214;28;20055;-65
2021/01/14 08:34:25;;;;;;;13.05;4.43;;;;;;;-0.72;97.05;96772.16;5037232;28;20907;-65
2021/01/14 08:36:55;;;;;;;10.32;3.70;;;;;;;-0.77;97.61;96773.06;5039092;28;20053;-65
2021/01/14 08:39:22;;;;;;;22.50;4.18;;;;;;;-0.79;97.88;96778.72;5054962;28;20037;-64
2021/01/14 08:41:50;;;;;;;10.10;4.75;;;;;;;-0.83;98.43;96784.97;5059486;28;20060;-64
2021/01/14 08:44:17;;;;;;;26.38;4.10;;;;;;;-0.81;98.82;96780.91;5035635;28;20427;-64
2021/01/14 08:46:48;;;;;;;5.43;3.30;;;;;;;-0.67;98.78;96780.16;5047888;28;20052;-64
2021/01/14 08:49:16;;;;;;;10.38;5.00;;;;;;;-0.63;98.42;96781.16;5053314;28;20045;-65
2021/01/14 08:51:42;;;;;;;9.50;5.03;;;;;;;-0.35;98.67;96778.59;5048639;28;20044;-64
2021/01/14 08:54:09;;;;;;;12.98;5.55;;;;;;;-0.12;98.35;96779.56;5052297;28;20189;-63
2021/01/14 08:56:36;;;;;;;8.77;5.10;;;;;;;0.07;97.73;96785.69;5055219;28;20098;-63
2021/01/14 08:59:11;;;;;;;14.95;5.75;;;;;;;0.18;97.75;96787.13;5045597;28;20480;-64
2021/01/14 09:01:38;;;;;;;17.05;8.60;;;;;;;0.18;96.50;96792.50;5054224;28;20043;-65
2021/01/14 09:04:09;;;;;;;12.55;6.72;;;;;;;0.17;95.69;96800.88;5053629;28;20051;-61
2021/01/14 09:06:39;;;;;;;10.00;6.20;;;;;;;0.27;96.02;96814.19;5061666;28;20099;-62
2021/01/14 09:09:05;;;;;;;10.95;6.57;;;;;;;0.42;96.03;96817.69;5056994;28;20040;-62
2021/01/14 09:11:32;;;;;;;14.27;7.88;;;;;;;0.49;95.66;96807.31;5061617;28;20063;-66
2021/01/14 09:14:04;;;;;;;16.10;8.45;;;;;;;0.46;95.15;96800.59;5061289;28;20040;-64
2021/01/14 09:16:30;;;;;;;12.18;7.07;;;;;;;0.44;94.65;96793.94;5057606;28;20115;-65
2021/01/14 09:18:55;;;;;;;17.60;7.93;;;;;;;0.58;93.75;96800.13;5055614;28;20131;-65
2021/01/14 09:21:21;;;;;;;12.02;6.40;;;;;;;0.61;93.12;96804.09;5047397;28;20169;-65
2021/01/14 09:23:47;;;;;;;9.57;5.95;;;;;;;0.28;92.61;96814.97;5042770;28;20393;-66
2021/01/14 09:26:14;;;;;;;11.60;6.78;;;;;;;0.30;92.77;96810.88;5056536;28;20048;-65
2021/01/14 09:28:41;;;;;;;8.05;4.75;;;;;;;0.32;92.94;96805.97;5056218;28;20037;-65
2021/01/14 09:31:11;;;;;;;13.70;6.55;;;;;;;0.35;92.88;96808.09;5057533;28;20040;-64
2021/01/14 09:33:41;;;;;;;10.30;5.95;;;;;;;0.27;93.16;96813.34;5062383;28;20505;-63
2021/01/14 09:36:13;;;;;;;9.98;5.90;;;;;;;0.35;93.73;96823.47;5058977;28;20131;-65
2021/01/14 09:38:40;;;;;;;7.35;4.93;;;;;;;0.50;93.43;96835.84;5064063;28;20107;-66
2021/01/14 09:41:06;;;;;;;11.05;6.30;;;;;;;-0.14;93.41;96843.69;5067889;28;20040;-65
2021/01/14 09:43:34;;;;;;;7.35;4.82;;;;;;;-0.28;95.10;96838.25;5078737;28;20041;-64
2021/01/14 09:46:01;;;;;;;5.10;3.50;;;;;;;-0.63;95.97;96845.72;5068029;28;20040;-64
2021/01/14 09:48:33;;;;;;;3.15;2.70;;;;;;;-0.88;96.21;96845.00;5057109;28;20410;-66
2021/01/14 09:51:06;;;;;;;2.60;2.40;;;;;;;-1.19;95.98;96847.25;5052874;28;20069;-65
2021/01/14 09:53:31;;;;;;;3.17;1.92;;;;;;;-1.17;96.93;96853.97;5061301;28;20071;-64
2021/01/14 09:55:57;;;;;;;2.08;1.75;;;;;;;-1.24;97.24;96853.50;5055476;28;20108;-63
2021/01/14 09:58:25;;;;;;;3.08;2.00;;;;;;;-1.45;97.28;96858.28;5047058;28;20442;-64
2021/01/14 10:00:52;;;;;;;2.97;1.77;;;;;;;-1.52;97.13;96863.19;5062750;28;20392;-62
2021/01/14 10:03:21;;;;;;;5.88;4.70;;;;;;;-1.61;97.17;96859.53;5048676;28;20037;-63
2021/01/14 10:05:51;;;;;;;2.95;2.30;;;;;;;-1.65;96.25;96851.25;5053467;28;20044;-62
2021/01/14 10:08:22;;;;;;;7.88;5.70;;;;;;;-1.63;95.58;96867.88;5054316;28;20124;-66
2021/01/14 10:10:50;;;;;;;5.10;3.25;;;;;;;-1.67;95.69;96869.53;5055391;28;20596;-63
2021/01/14 10:13:16;;;;;;;3.33;1.90;;;;;;;-1.68;95.11;96872.50;5057184;28;20605;-65
2021/01/14 10:15:43;;;;;;;3.63;1.60;;;;;;;-1.68;94.08;96877.88;5047535;28;20313;-64
2021/01/14 10:18:25;;;;;;;1.67;1.58;;;;;;;-1.75;93.17;96876.31;5052369;28;20036;-64
2021/01/14 10:21:01;;;;;;;1.50;1.40;;;;;;;-1.77;92.65;96877.69;5043103;28;20049;-64
2021/01/14 10:23:27;;;;;;;1.60;1.50;;;;;;;-1.86;93.41;96876.69;5042108;28;20045;-65
2021/01/14 10:25:54;;;;;;;3.15;1.65;;;;;;;-1.88;94.00;96879.66;5065531;28;20066;-66
2021/01/14 10:28:20;;;;;;;1.85;1.35;;;;;;;-1.88;94.41;96884.22;5059593;28;20041;-65
2021/01/14 10:30:45;;;;;;;1.40;1.30;;;;;;;-1.88;94.74;96882.34;5056921;28;20059;-67
2021/01/14 10:33:11;;;;;;;4.53;2.95;;;;;;;-1.96;94.52;96881.06;5048600;28;20068;-64
2021/01/14 10:35:37;;;;;;;5.72;4.43;;;;;;;-1.98;94.67;96883.22;5064548;28;20047;-67
2021/01/14 10:38:16;;;;;;;2.40;2.20;;;;;;;-2.08;95.25;96877.94;5063250;28;20087;-63
2021/01/14 10:40:44;;;;;;;5.13;4.63;;;;;;;-2.06;95.05;96894.56;5045755;28;20128;-64
2021/01/14 10:43:11;;;;;;;3.55;3.20;;;;;;;-2.05;94.78;96874.69;5046863;28;20055;-63
2021/01/14 10:45:38;;;;;;;2.42;2.15;;;;;;;-2.04;94.77;96891.59;5068110;28;20389;-66
2021/01/14 10:48:07;;;;;;;2.42;2.05;;;;;;;-2.01;95.13;96883.78;5065011;28;20048;-63
2021/01/14 10:50:41;;;;;;;1.90;1.80;;;;;;;-1.95;94.95;96879.16;5061690;28;20049;-67
2021/01/14 10:53:06;;;;;;;2.08;1.60;;;;;;;-2.09;95.00;96878.22;5042208;28;20052;-65
2021/01/14 10:55:33;;;;;;;2.17;1.42;;;;;;;-2.12;94.84;96884.94;5069725;28;20040;-65
2021/01/14 10:58:00;;;;;;;3.05;1.80;;;;;;;-2.22;94.86;96874.28;5070546;28;20138;-66
2021/01/14 11:00:40;;;;;;;2.28;1.35;;;;;;;-2.21;95.15;96879.38;5059542;28;20238;-66
2021/01/14 11:03:11;;;;;;;1.45;1.35;;;;;;;-2.13;95.09;96881.44;5060200;28;20041;-63
2021/01/14 11:05:48;;;;;;;2.08;1.65;;;;;;;-2.13;95.75;96888.69;5068080;28;20040;-66
2021/01/14 11:08:24;;;;;;;1.60;1.50;;;;;;;-1.97;95.58;96882.13;5064339;28;20101;-68
2021/01/14 11:11:02;;;;;;;1.85;1.58;;;;;;;-2.02;96.01;96886.75;5066197;28;20044;-71
2021/01/14 11:13:37;;;;;;;2.72;1.70;;;;;;;-2.12;96.38;96882.28;5061783;28;20036;-69
2021/01/14 11:16:04;;;;;;;2.78;2.03;;;;;;;-2.14;96.54;96887.13;5064744;28;20040;-62
2021/01/14 11:18:30;;;;;;;2.80;2.00;;;;;;;-1.92;96.96;96879.41;5048764;28;20044;-65
2021/01/14 11:20:55;;;;;;;6.47;3.25;;;;;;;-2.05;96.48;96888.13;5075459;28;20043;-67
2021/01/14 11:23:21;;;;;;;12.32;5.15;;;;;;;-2.23;96.38;96894.97;5064880;28;20221;-63
2021/01/14 11:25:46;;;;;;;8.75;4.93;;;;;;;-2.32;96.94;96886.69;5054788;28;20055;-65
2021/01/14 11:28:12;;;;;;;6.10;3.80;;;;;;;-2.20;96.36;96886.31;5036619;28;20061;-65
2021/01/14 11:30:37;;;;;;;4.53;3.17;;;;;;;-2.35;96.44;96886.44;5064632;28;20045;-67
2021/01/14 11:33:02;;;;;;;4.75;3.15;;;;;;;-2.42;96.69;96886.75;5046633;28;20040;-63
2021/01/14 11:35:28;;;;;;;5.00;3.22;;;;;;;-2.43;96.64;96881.66;5051771;28;20131;-66
2021/01/14 11:37:53;;;;;;;4.32;3.05;;;;;;;-2.51;96.31;96891.09;5061067;28;20378;-65
2021/01/14 11:40:19;;;;;;;4.30;2.65;;;;;;;-2.59;96.72;96891.69;5023835;28;20040;-65
2021/01/14 11:42:44;;;;;;;3.50;2.20;;;;;;;-2.64;96.46;96891.72;5054280;28;20037;-66
2021/01/14 11:45:10;;;;;;;3.60;2.45;;;;;;;-2.65;96.64;96892.78;5052587;28;20036;-66
2021/01/14 11:47:35;;;;;;;6.43;4.20;;;;;;;-2.71;96.58;96881.28;5058054;28;20068;-67